Time;durP1;ratioP1;P1;durP2;ratioP2;P2;SDS_P1;SDS_P2;PMS_P1;PMS_P2;Temp;Humidity;BMP_temperature;BMP_pressure;BME280_temperature;BME280_humidity;BME280_pressure;Samples;Min_cycle;Max_cycle;Signal;HPM_P1;HPM_P2
2023/12/22 00:02:23;;;;;;;14.93;3.43;;;;;;;4.56;85.49;98571.34;5003329;28;20726;-71
2023/12/22 00:04:49;;;;;;;11.87;2.57;;;;;;;4.57;85.16;98563.34;5003738;28;20687;-71
2023/12/22 00:07:16;;;;;;;14.93;3.70;;;;;;;4.57;85.23;98571.25;5002154;28;20713;-70
2023/12/22 00:09:42;;;;;;;19.30;3.40;;;;;;;4.59;85.48;98582.53;4999683;28;20318;-71
2023/12/22 00:12:09;;;;;;;19.20;4.50;;;;;;;4.58;85.70;98570.28;4999630;28;20221;-70
2023/12/22 00:14:37;;;;;;;12.53;2.50;;;;;;;4.56;84.95;98561.66;5005292;28;20214;-71
2023/12/22 00:17:07;;;;;;;11.77;2.47;;;;;;;4.55;84.87;98567.88;5000798;28;20659;-70
2023/12/22 00:19:33;;;;;;;9.87;2.10;;;;;;;4.53;84.09;98583.78;5005538;28;20200;-71
2023/12/22 00:22:00;;;;;;;13.23;3.03;;;;;;;4.52;84.29;98578.63;5005492;28;20303;-71
2023/12/22 00:24:26;;;;;;;10.20;1.97;;;;;;;4.48;84.08;98578.00;5003051;28;20784;-71
2023/12/22 00:26:53;;;;;;;6.70;1.90;;;;;;;4.47;84.40;98573.72;5004518;28;20231;-71
2023/12/22 00:29:19;;;;;;;7.17;1.83;;;;;;;4.45;84.85;98553.69;5004530;28;20250;-70
2023/12/22 00:31:46;;;;;;;10.93;1.83;;;;;;;4.42;84.92;98577.63;4998261;28;20227;-71
2023/12/22 00:34:14;;;;;;;10.53;2.10;;;;;;;4.44;85.37;98583.63;5002306;28;20211;-71
2023/12/22 00:36:40;;;;;;;12.87;2.27;;;;;;;4.43;85.30;98587.22;5003877;28;20254;-70
2023/12/22 00:39:07;;;;;;;11.60;2.70;;;;;;;4.40;85.75;98577.72;5001598;28;20707;-70
2023/12/22 00:41:34;;;;;;;16.63;3.20;;;;;;;4.39;85.49;98585.75;5003936;28;20229;-71
2023/12/22 00:44:00;;;;;;;10.37;3.03;;;;;;;4.34;85.86;98588.69;5004216;28;20215;-71
2023/12/22 00:46:26;;;;;;;15.07;2.73;;;;;;;4.35;85.44;98584.25;5004934;28;20756;-71
2023/12/22 00:48:53;;;;;;;10.77;2.53;;;;;;;4.32;85.39;98568.66;5000309;28;20617;-70
2023/12/22 00:51:21;;;;;;;14.83;3.07;;;;;;;4.32;84.89;98579.19;5003110;28;20611;-71
2023/12/22 00:53:47;;;;;;;13.37;4.40;;;;;;;4.31;85.24;98586.25;4998124;28;20210;-70
2023/12/22 00:56:14;;;;;;;11.50;2.70;;;;;;;4.35;85.13;98589.53;5003289;28;20237;-70
2023/12/22 00:58:40;;;;;;;10.30;3.10;;;;;;;4.32;84.47;98582.69;5002539;28;20211;-71
2023/12/22 01:01:06;;;;;;;9.37;2.20;;;;;;;4.36;84.44;98592.06;5000126;28;20710;-71
2023/12/22 01:03:33;;;;;;;13.30;2.60;;;;;;;4.35;84.18;98590.38;5005782;28;20363;-71
2023/12/22 01:05:59;;;;;;;13.27;3.37;;;;;;;4.36;84.16;98596.50;5004013;28;20887;-70
2023/12/22 01:08:27;;;;;;;11.90;2.17;;;;;;;4.34;84.16;98614.19;5001988;28;20219;-71
2023/12/22 01:10:53;;;;;;;17.70;4.47;;;;;;;4.29;84.58;98614.53;5000229;28;20226;-71
2023/12/22 01:13:20;;;;;;;9.87;2.53;;;;;;;4.35;84.50;98618.53;5002140;28;20210;-70
2023/12/22 01:15:46;;;;;;;12.63;3.50;;;;;;;4.39;83.76;98622.63;5000166;28;20583;-70
2023/12/22 01:18:13;;;;;;;11.63;2.50;;;;;;;4.37;84.26;98621.91;5002626;28;20210;-71
2023/12/22 01:20:39;;;;;;;10.80;2.97;;;;;;;4.38;83.92;98621.78;5003022;28;20238;-71
2023/12/22 01:23:06;;;;;;;8.97;2.27;;;;;;;4.42;83.99;98632.97;5003749;28;20202;-71
2023/12/22 01:25:33;;;;;;;11.93;2.40;;;;;;;4.40;84.24;98614.63;5001885;28;20210;-71
2023/12/22 01:28:00;;;;;;;15.60;2.80;;;;;;;4.38;84.81;98628.84;5006217;28;20213;-71
2023/12/22 01:30:26;;;;;;;15.17;2.50;;;;;;;4.40;84.83;98629.59;5007332;28;20234;-71
2023/12/22 01:32:53;;;;;;;12.80;2.40;;;;;;;4.44;84.98;98615.25;5006534;28;20213;-71
2023/12/22 01:35:19;;;;;;;9.10;2.80;;;;;;;4.44;85.35;98626.63;5006258;28;20218;-71
2023/12/22 01:37:47;;;;;;;11.63;2.80;;;;;;;4.44;85.14;98623.16;5004593;28;20577;-70
2023/12/22 01:40:13;;;;;;;8.97;2.30;;;;;;;4.47;85.28;98631.69;5002051;28;20230;-71
2023/12/22 01:42:41;;;;;;;13.47;3.27;;;;;;;4.44;84.83;98642.47;5005168;28;20624;-71
2023/12/22 01:45:08;;;;;;;10.50;3.03;;;;;;;4.42;84.73;98622.41;5007613;28;20227;-70
2023/12/22 01:47:36;;;;;;;9.87;2.10;;;;;;;4.43;85.29;98622.31;5008175;28;20218;-71
2023/12/22 01:50:03;;;;;;;12.23;2.60;;;;;;;4.46;85.40;98639.72;5001591;28;20302;-71
2023/12/22 01:52:30;;;;;;;8.60;1.70;;;;;;;4.49;85.49;98642.09;5006211;28;20655;-71
2023/12/22 01:54:56;;;;;;;10.27;2.10;;;;;;;4.44;85.99;98649.53;5005359;28;20207;-71
2023/12/22 01:57:23;;;;;;;9.77;2.03;;;;;;;4.46;86.44;98639.72;5005266;28;20207;-70
2023/12/22 01:59:52;;;;;;;10.90;1.80;;;;;;;4.48;86.75;98657.06;5000016;28;20246;-71
2023/12/22 02:02:18;;;;;;;5.90;1.70;;;;;;;4.46;86.19;98653.72;5006573;28;20265;-71
2023/12/22 02:04:46;;;;;;;5.93;1.63;;;;;;;4.48;85.52;98635.16;5006374;28;20207;-71
2023/12/22 02:07:13;;;;;;;7.33;1.60;;;;;;;4.44;85.09;98636.34;5006712;28;20210;-71
2023/12/22 02:09:39;;;;;;;4.80;1.23;;;;;;;4.38;84.20;98636.75;5006687;28;20234;-71
2023/12/22 02:12:06;;;;;;;8.73;1.77;;;;;;;4.36;84.56;98643.94;5004381;28;20214;-71
2023/12/22 02:14:33;;;;;;;9.77;1.30;;;;;;;4.35;84.33;98652.78;5003790;28;20218;-72
2023/12/22 02:17:12;;;;;;;15.27;3.13;;;;;;;4.35;84.14;98647.50;5005526;28;20586;-71
2023/12/22 02:19:43;;;;;;;9.27;2.00;;;;;;;4.35;83.73;98624.63;5005641;28;20444;-72
2023/12/22 02:22:11;;;;;;;10.87;1.83;;;;;;;4.36;84.09;98643.94;5003752;28;20220;-70
2023/12/22 02:24:40;;;;;;;12.70;1.60;;;;;;;4.38;84.34;98647.31;5007639;28;20206;-71
2023/12/22 02:27:14;;;;;;;12.27;2.23;;;;;;;4.39;85.07;98654.25;5003392;28;20199;-71
2023/12/22 02:29:44;;;;;;;7.33;1.87;;;;;;;4.44;84.79;98652.16;5006276;28;20213;-71
2023/12/22 02:32:17;;;;;;;5.17;1.40;;;;;;;4.36;85.29;98644.78;5006136;28;20207;-71
2023/12/22 02:34:47;;;;;;;6.97;1.60;;;;;;;4.32;86.26;98653.00;5001598;28;20206;-71
2023/12/22 02:37:15;;;;;;;7.70;1.57;;;;;;;4.33;87.13;98641.50;5004206;28;20222;-71
2023/12/22 02:39:43;;;;;;;6.23;1.50;;;;;;;4.31;87.73;98648.66;5007878;28;20203;-71
2023/12/22 02:42:10;;;;;;;9.87;1.30;;;;;;;4.29;88.64;98646.16;4996592;28;20818;-71
2023/12/22 02:44:36;;;;;;;5.70;1.00;;;;;;;4.24;88.67;98660.59;5006401;28;20214;-71
2023/12/22 02:47:03;;;;;;;7.27;2.33;;;;;;;4.18;87.52;98652.16;5005764;28;20346;-71
2023/12/22 02:49:30;;;;;;;10.80;1.40;;;;;;;4.14;88.24;98661.22;5003305;28;20231;-71
2023/12/22 02:51:56;;;;;;;3.87;1.23;;;;;;;4.12;88.06;98657.84;4998786;28;20218;-71
2023/12/22 02:54:22;;;;;;;7.97;1.53;;;;;;;4.07;87.58;98659.13;5006316;28;20203;-71
2023/12/22 02:56:50;;;;;;;4.27;1.57;;;;;;;4.03;87.22;98631.31;5004429;28;20227;-71
2023/12/22 02:59:17;;;;;;;11.97;1.37;;;;;;;4.06;86.65;98634.56;5001588;28;20210;-71
2023/12/22 03:01:43;;;;;;;5.13;1.50;;;;;;;4.06;86.30;98642.47;5007034;28;20249;-71
2023/12/22 03:04:09;;;;;;;7.13;1.27;;;;;;;4.02;86.60;98637.50;5003547;28;20220;-71
2023/12/22 03:06:36;;;;;;;9.33;1.93;;;;;;;4.04;86.71;98641.72;5005187;28;20262;-71
2023/12/22 03:09:03;;;;;;;5.83;1.60;;;;;;;4.09;86.59;98633.53;5005799;28;20211;-71
2023/12/22 03:11:30;;;;;;;4.50;1.20;;;;;;;4.08;86.59;98630.03;5005421;28;20317;-71
2023/12/22 03:13:57;;;;;;;4.97;1.40;;;;;;;4.10;85.90;98627.31;4999366;28;20226;-71
2023/12/22 03:16:24;;;;;;;7.47;1.40;;;;;;;4.07;86.13;98633.63;5001868;28;20211;-72
2023/12/22 03:18:50;;;;;;;13.90;1.70;;;;;;;4.08;85.70;98622.16;5002488;28;20199;-71
2023/12/22 03:21:18;;;;;;;6.87;1.83;;;;;;;4.06;84.94;98626.66;5005235;28;20629;-71
2023/12/22 03:23:45;;;;;;;6.93;1.20;;;;;;;4.03;85.25;98621.59;5006164;28;20358;-71
2023/12/22 03:26:11;;;;;;;7.83;2.00;;;;;;;4.02;85.55;98613.81;5002967;28;20219;-70
2023/12/22 03:28:38;;;;;;;8.17;1.30;;;;;;;4.05;84.91;98617.09;5007001;28;20203;-72
2023/12/22 03:31:06;;;;;;;11.73;2.10;;;;;;;4.07;83.41;98632.78;5004828;28;20237;-71
2023/12/22 03:33:33;;;;;;;8.27;1.93;;;;;;;4.05;83.64;98635.53;5004014;28;20206;-71
2023/12/22 03:35:59;;;;;;;6.20;1.90;;;;;;;4.05;83.93;98651.31;5004749;28;20215;-71
2023/12/22 03:38:26;;;;;;;13.40;2.73;;;;;;;4.06;84.17;98642.47;5005304;28;20214;-71
2023/12/22 03:40:52;;;;;;;13.40;2.33;;;;;;;4.06;84.17;98650.38;5006348;28;20225;-71
2023/12/22 03:43:18;;;;;;;9.37;1.80;;;;;;;4.13;84.83;98648.16;5003961;28;20207;-71
2023/12/22 03:45:45;;;;;;;8.67;2.20;;;;;;;4.14;85.40;98668.28;5005189;28;20207;-71
2023/12/22 03:48:13;;;;;;;8.80;1.80;;;;;;;4.13;85.84;98654.25;5003089;28;20596;-71
2023/12/22 03:50:39;;;;;;;10.67;1.40;;;;;;;4.15;86.57;98655.00;5002407;28;20227;-71
2023/12/22 03:53:05;;;;;;;6.13;1.60;;;;;;;4.19;85.55;98648.56;5006221;28;20222;-71
2023/12/22 03:55:32;;;;;;;14.93;2.07;;;;;;;4.19;85.53;98642.47;5000885;28;20210;-72
2023/12/22 03:57:58;;;;;;;8.40;2.07;;;;;;;4.13;85.10;98629.72;5002743;28;20210;-71
2023/12/22 04:00:25;;;;;;;6.50;1.47;;;;;;;4.13;85.56;98638.44;5002567;28;20223;-71
2023/12/22 04:02:51;;;;;;;11.87;1.93;;;;;;;4.10;85.17;98654.50;5003961;28;20207;-71
2023/12/22 04:05:19;;;;;;;8.33;1.97;;;;;;;4.10;84.61;98643.97;5004829;28;20203;-72
2023/12/22 04:07:46;;;;;;;6.53;2.17;;;;;;;4.09;84.80;98636.16;5003213;28;20207;-71
2023/12/22 04:10:12;;;;;;;8.90;1.90;;;;;;;4.12;84.79;98652.56;5003398;28;20231;-72
2023/12/22 04:12:38;;;;;;;12.97;2.67;;;;;;;4.12;85.57;98647.31;5004077;28;20203;-71
2023/12/22 04:15:07;;;;;;;11.83;2.67;;;;;;;4.16;86.42;98640.88;5002263;28;20219;-71
2023/12/22 04:17:33;;;;;;;12.60;2.90;;;;;;;4.16;87.01;98630.34;5002645;28;20210;-72
2023/12/22 04:20:00;;;;;;;12.23;2.67;;;;;;;4.17;86.98;98636.47;5003898;28;20254;-71
2023/12/22 04:22:27;;;;;;;14.83;3.73;;;;;;;4.16;86.02;98643.50;5004181;28;20206;-71
2023/12/22 04:24:54;;;;;;;9.57;1.90;;;;;;;4.15;85.02;98641.81;5000647;28;20219;-71
2023/12/22 04:27:20;;;;;;;10.10;1.73;;;;;;;4.18;84.44;98631.09;5004884;28;20597;-72
2023/12/22 04:29:47;;;;;;;13.57;2.43;;;;;;;4.18;84.53;98631.09;5005547;28;20607;-72
2023/12/22 04:32:13;;;;;;;14.30;2.30;;;;;;;4.23;84.98;98624.66;4999908;28;20203;-72
2023/12/22 04:34:40;;;;;;;10.90;2.20;;;;;;;4.24;84.56;98626.34;5004197;28;20210;-72
2023/12/22 04:37:06;;;;;;;12.23;2.47;;;;;;;4.25;84.17;98626.25;5001543;28;20203;-72
2023/12/22 04:39:34;;;;;;;8.93;1.80;;;;;;;4.32;82.89;98630.13;5000083;28;20210;-72
2023/12/22 04:42:00;;;;;;;9.10;1.70;;;;;;;4.33;83.08;98620.41;5001836;28;20203;-71
2023/12/22 04:44:27;;;;;;;8.20;2.73;;;;;;;4.33;82.90;98628.31;4998402;28;20219;-71
2023/12/22 04:46:53;;;;;;;15.40;2.07;;;;;;;4.33;83.48;98612.50;4999921;28;20215;-71
2023/12/22 04:49:19;;;;;;;11.43;2.67;;;;;;;4.33;82.71;98617.78;5000509;28;20222;-71
2023/12/22 04:51:46;;;;;;;12.43;2.37;;;;;;;4.36;81.94;98620.22;4999862;28;20671;-72
2023/12/22 04:54:12;;;;;;;11.97;1.80;;;;;;;4.37;81.47;98606.09;5000076;28;20206;-71
2023/12/22 04:56:40;;;;;;;10.27;2.43;;;;;;;4.41;80.73;98620.75;5000152;28;20199;-71
2023/12/22 04:59:07;;;;;;;8.27;1.97;;;;;;;4.42;81.28;98609.25;4997071;28;20780;-70
2023/12/22 05:01:33;;;;;;;6.13;1.57;;;;;;;4.43;80.72;98610.94;4999632;28;20725;-72
2023/12/22 05:03:59;;;;;;;9.43;2.43;;;;;;;4.46;79.90;98587.84;5000857;28;20203;-72
2023/12/22 05:06:26;;;;;;;8.97;1.80;;;;;;;4.46;79.55;98629.16;5000894;28;20202;-71
2023/12/22 05:08:52;;;;;;;11.67;1.67;;;;;;;4.49;79.35;98626.28;4999486;28;20202;-72
2023/12/22 05:11:19;;;;;;;6.57;2.57;;;;;;;4.49;79.49;98640.31;5001776;28;20226;-72
2023/12/22 05:13:46;;;;;;;7.97;1.67;;;;;;;4.51;79.62;98616.50;4999754;28;20234;-72
2023/12/22 05:16:13;;;;;;;9.43;1.67;;;;;;;4.49;79.90;98671.94;4998677;28;20228;-72
2023/12/22 05:18:40;;;;;;;8.77;1.77;;;;;;;4.50;79.31;98636.72;4997150;28;20203;-72
2023/12/22 05:21:06;;;;;;;8.33;1.80;;;;;;;4.51;79.67;98637.56;5029806;22;20245;-74
2023/12/22 05:23:33;;;;;;;6.93;1.80;;;;;;;4.50;79.58;98649.06;5019741;28;20201;-74
2023/12/22 05:26:00;;;;;;;7.97;1.60;;;;;;;4.50;80.15;98641.16;5021955;28;20199;-72
2023/12/22 05:28:26;;;;;;;4.83;1.83;;;;;;;4.51;81.61;98643.69;5022132;28;20213;-73
2023/12/22 05:30:54;;;;;;;5.87;1.27;;;;;;;4.52;82.76;98644.53;5009676;28;20238;-72
2023/12/22 05:33:20;;;;;;;8.70;1.53;;;;;;;4.49;82.01;98639.47;5007982;28;20206;-74
2023/12/22 05:35:47;;;;;;;7.83;1.60;;;;;;;4.46;82.45;98652.91;5003044;28;20206;-73
2023/12/22 05:38:13;;;;;;;6.93;1.53;;;;;;;4.46;82.74;98639.72;5008413;28;20226;-71
2023/12/22 05:40:40;;;;;;;5.80;1.37;;;;;;;4.44;84.01;98653.00;5007504;28;20231;-72
2023/12/22 05:43:06;;;;;;;9.97;1.63;;;;;;;4.39;84.89;98664.81;5005096;28;20700;-73
2023/12/22 05:45:33;;;;;;;5.20;1.50;;;;;;;4.35;85.60;98673.88;5011385;28;20207;-73
2023/12/22 05:48:00;;;;;;;11.70;2.23;;;;;;;4.34;85.24;98659.00;5009940;28;20221;-74
2023/12/22 05:50:27;;;;;;;8.90;2.03;;;;;;;4.34;84.47;98651.94;5007923;28;20239;-72
2023/12/22 05:52:54;;;;;;;6.10;1.63;;;;;;;4.29;83.05;98663.75;5003960;28;20202;-72
2023/12/22 05:55:20;;;;;;;10.30;1.63;;;;;;;4.30;83.22;98686.53;5001656;28;20211;-72
2023/12/22 05:57:47;;;;;;;9.77;2.57;;;;;;;4.30;82.61;98668.91;5007474;28;20667;-72
2023/12/22 06:00:15;;;;;;;8.07;1.90;;;;;;;4.37;82.91;98671.97;5000991;28;20235;-69
2023/12/22 06:02:41;;;;;;;7.90;1.63;;;;;;;4.35;82.13;98679.97;5009876;28;20211;-73
2023/12/22 06:05:09;;;;;;;6.30;1.50;;;;;;;4.35;81.44;98685.25;5008472;28;20206;-72
2023/12/22 06:07:36;;;;;;;8.30;1.80;;;;;;;4.36;81.12;98688.72;5009297;28;20222;-71
2023/12/22 06:10:02;;;;;;;9.37;1.70;;;;;;;4.37;81.44;98703.59;5006369;28;20211;-72
2023/12/22 06:12:29;;;;;;;7.13;1.90;;;;;;;4.40;80.72;98687.56;5012083;28;20198;-72
2023/12/22 06:14:55;;;;;;;6.90;2.00;;;;;;;4.39;80.55;98699.91;5008820;28;20225;-72
2023/12/22 06:17:21;;;;;;;5.60;1.83;;;;;;;4.40;80.42;98695.47;5002408;28;20210;-74
2023/12/22 06:19:48;;;;;;;8.20;1.50;;;;;;;4.43;80.67;98693.47;5011919;28;20203;-73
2023/12/22 06:22:16;;;;;;;8.80;1.63;;;;;;;4.45;80.87;98706.56;5011129;28;20243;-74
2023/12/22 06:24:42;;;;;;;6.67;1.10;;;;;;;4.46;81.26;98701.19;5011492;28;20205;-74
2023/12/22 06:27:09;;;;;;;7.93;2.13;;;;;;;4.45;81.46;98717.09;5009830;28;20630;-73
2023/12/22 06:29:35;;;;;;;4.73;1.20;;;;;;;4.44;82.75;98728.59;5011665;28;20230;-74
2023/12/22 06:32:02;;;;;;;5.13;1.10;;;;;;;4.44;84.25;98731.22;5002976;28;20234;-73
2023/12/22 06:34:28;;;;;;;4.10;0.90;;;;;;;4.40;85.71;98738.50;5012253;28;20199;-76
2023/12/22 06:36:55;;;;;;;4.33;0.90;;;;;;;4.35;88.11;98742.38;5006155;28;20641;-75
2023/12/22 06:39:22;;;;;;;6.40;1.30;;;;;;;4.30;90.05;98803.28;5016808;28;20704;-75
2023/12/22 06:41:49;;;;;;;13.43;1.73;;;;;;;4.19;91.06;98764.50;5015464;28;20229;-75
2023/12/22 06:44:15;;;;;;;6.60;1.13;;;;;;;4.04;92.12;98768.16;4999198;28;20211;-76
2023/12/22 06:46:42;;;;;;;2.13;0.70;;;;;;;3.93;92.88;98764.56;5010622;28;20713;-74
2023/12/22 06:49:08;;;;;;;6.00;0.60;;;;;;;3.75;93.81;98771.91;5015754;28;20590;-74
2023/12/22 06:51:35;;;;;;;5.50;0.60;;;;;;;3.61;93.91;98779.81;5011817;28;20246;-74
2023/12/22 06:54:04;;;;;;;0.53;0.20;;;;;;;3.43;93.82;98784.47;5011003;28;20214;-73
2023/12/22 06:56:34;;;;;;;0.10;0.10;;;;;;;3.20;93.81;98790.38;5007063;28;20696;-74
2023/12/22 06:59:00;;;;;;;0.60;0.20;;;;;;;3.04;95.29;98746.63;5013838;28;20223;-74
2023/12/22 07:01:29;;;;;;;0.53;0.20;;;;;;;2.93;97.46;98764.00;5009779;28;20619;-74
2023/12/22 07:03:56;;;;;;;1.90;0.20;;;;;;;2.84;98.53;98759.31;5011145;28;20218;-74
2023/12/22 07:06:24;;;;;;;0.27;0.10;;;;;;;2.74;98.38;98766.91;5015045;28;20199;-73
2023/12/22 07:09:28;;;;;;;1.80;0.10;;;;;;;2.65;100.00;98792.00;5011365;28;20203;-74
2023/12/22 07:11:56;;;;;;;0.50;0.23;;;;;;;2.59;100.00;98828.28;5010766;28;20321;-71
2023/12/22 07:14:23;;;;;;;1.80;0.30;;;;;;;2.52;100.00;98804.16;5008169;28;20203;-73
2023/12/22 07:16:49;;;;;;;1.33;0.40;;;;;;;2.50;100.00;98808.69;5010662;28;20222;-73
2023/12/22 07:19:16;;;;;;;3.13;1.03;;;;;;;2.46;100.00;98807.16;5014159;28;20308;-73
2023/12/22 07:21:43;;;;;;;3.83;0.73;;;;;;;2.46;100.00;98796.66;5011111;28;20238;-72
2023/12/22 07:24:09;;;;;;;3.47;1.00;;;;;;;2.48;100.00;98788.69;5011432;28;20210;-73
2023/12/22 07:26:36;;;;;;;6.80;1.20;;;;;;;2.52;100.00;98777.03;5011707;28;20214;-73
2023/12/22 07:29:03;;;;;;;7.37;1.27;;;;;;;2.54;100.00;98772.53;5011658;28;20237;-73
2023/12/22 07:31:30;;;;;;;4.87;1.00;;;;;;;2.60;100.00;98775.66;5011977;28;20249;-73
2023/12/22 07:33:56;;;;;;;8.63;1.77;;;;;;;2.70;100.00;98768.88;5011584;28;20210;-73
2023/12/22 07:36:23;;;;;;;16.23;2.03;;;;;;;2.81;100.00;98749.84;5012394;28;20582;-72
2023/12/22 07:38:49;;;;;;;12.13;3.57;;;;;;;2.92;100.00;98764.94;5009324;28;20701;-73
2023/12/22 07:41:16;;;;;;;12.83;2.40;;;;;;;3.01;100.00;98767.00;5014965;28;20222;-72
2023/12/22 07:43:42;;;;;;;7.00;1.57;;;;;;;3.14;100.00;98770.53;5008760;28;20709;-72
2023/12/22 07:46:17;;;;;;;10.63;1.60;;;;;;;3.25;100.00;98788.28;5008964;28;20686;-73
2023/12/22 07:48:45;;;;;;;13.50;3.47;;;;;;;3.34;100.00;98809.59;5005825;28;20695;-73
2023/12/22 07:51:11;;;;;;;13.47;2.60;;;;;;;3.41;100.00;98826.66;5013188;28;20238;-72
2023/12/22 07:53:38;;;;;;;9.40;1.63;;;;;;;3.55;100.00;98811.81;5010992;28;20287;-73
2023/12/22 07:56:05;;;;;;;12.93;2.80;;;;;;;3.65;100.00;98826.06;5009300;28;20202;-73
2023/12/22 07:58:32;;;;;;;8.70;2.27;;;;;;;3.70;98.99;98797.66;5003902;28;20710;-74
2023/12/22 08:00:58;;;;;;;10.93;2.30;;;;;;;3.75;98.45;98837.72;5012187;28;20242;-73
2023/12/22 08:03:26;;;;;;;14.33;2.73;;;;;;;3.84;97.70;98843.22;5011057;28;20579;-73
2023/12/22 08:05:52;;;;;;;11.63;2.93;;;;;;;3.94;97.80;98867.16;5009310;28;20207;-73
2023/12/22 08:08:19;;;;;;;15.50;2.03;;;;;;;4.00;98.72;98847.47;5007904;28;20198;-71
2023/12/22 08:10:46;;;;;;;9.73;2.30;;;;;;;4.01;99.59;98849.19;5009691;28;20592;-74
2023/12/22 08:13:12;;;;;;;19.40;4.13;;;;;;;4.00;99.09;98824.63;5009768;28;20217;-73
2023/12/22 08:15:38;;;;;;;11.60;2.60;;;;;;;4.02;95.16;98822.75;5010501;28;20207;-73
2023/12/22 08:18:06;;;;;;;12.13;2.77;;;;;;;4.05;93.48;98842.78;5012163;28;20218;-73
2023/12/22 08:20:33;;;;;;;11.33;2.70;;;;;;;4.11;93.21;98852.91;5008643;28;20241;-72
2023/12/22 08:23:00;;;;;;;12.10;2.07;;;;;;;4.18;92.11;98864.72;5012590;28;20207;-73
2023/12/22 08:25:27;;;;;;;10.40;2.70;;;;;;;4.23;92.05;98869.69;5015225;28;20291;-74
2023/12/22 08:27:53;;;;;;;9.17;2.83;;;;;;;4.27;91.65;98858.03;5011777;28;20607;-73
2023/12/22 08:30:19;;;;;;;14.23;2.87;;;;;;;4.33;90.14;98861.06;5012480;28;20241;-73
2023/12/22 08:32:46;;;;;;;12.73;2.73;;;;;;;4.35;89.67;98853.06;5013060;28;20753;-74
2023/12/22 08:35:12;;;;;;;10.47;2.23;;;;;;;4.41;89.41;98863.22;5010685;28;20217;-73
2023/12/22 08:37:40;;;;;;;11.90;2.20;;;;;;;4.42;88.72;98873.66;5013282;28;20293;-73
2023/12/22 08:40:08;;;;;;;13.53;2.70;;;;;;;4.45;88.45;98852.38;5006299;28;20230;-73
2023/12/22 08:42:34;;;;;;;10.03;2.47;;;;;;;4.49;87.84;98877.56;5016797;28;20673;-73
2023/12/22 08:45:02;;;;;;;16.90;3.10;;;;;;;4.49;87.28;98882.81;5012485;28;20679;-73
2023/12/22 08:47:29;;;;;;;11.23;2.10;;;;;;;4.57;86.82;98890.25;5013394;28;20206;-74
2023/12/22 08:49:55;;;;;;;14.50;2.27;;;;;;;4.61;86.49;98888.25;5012291;28;20230;-73
2023/12/22 08:52:21;;;;;;;9.83;2.57;;;;;;;4.67;84.97;98893.94;5011375;28;20227;-73
2023/12/22 08:54:49;;;;;;;12.97;2.83;;;;;;;4.75;84.91;98894.28;5008880;28;20203;-73
2023/12/22 08:57:16;;;;;;;9.23;2.20;;;;;;;4.79;84.75;98905.47;5011216;28;20211;-73
2023/12/22 08:59:42;;;;;;;13.67;2.97;;;;;;;4.81;84.61;98901.78;5010327;28;20453;-72
2023/12/22 09:02:08;;;;;;;12.70;2.50;;;;;;;4.87;84.47;98896.06;5012094;28;20233;-73
2023/12/22 09:04:35;;;;;;;9.87;2.87;;;;;;;4.88;84.67;98903.03;5007939;28;20203;-72
2023/12/22 09:07:01;;;;;;;11.67;3.00;;;;;;;4.96;84.48;98906.97;5013488;28;20234;-72
2023/12/22 09:09:28;;;;;;;10.40;2.73;;;;;;;5.03;83.10;98906.44;5012173;28;20725;-73
2023/12/22 09:11:55;;;;;;;14.27;2.43;;;;;;;5.03;83.37;98914.34;5009924;28;20231;-74
2023/12/22 09:14:22;;;;;;;8.10;2.47;;;;;;;5.01;82.43;98911.00;5011898;28;20685;-73
2023/12/22 09:16:48;;;;;;;10.80;2.70;;;;;;;5.07;82.44;98902.63;5007717;28;20673;-73
2023/12/22 09:19:15;;;;;;;12.10;2.17;;;;;;;5.05;82.11;98903.69;5010486;28;20206;-73
2023/12/22 09:21:44;;;;;;;7.27;1.93;;;;;;;5.07;82.03;98909.72;5009928;28;20726;-72
2023/12/22 09:24:12;;;;;;;9.90;2.17;;;;;;;5.10;81.17;98906.88;5009731;28;20210;-73
2023/12/22 09:26:38;;;;;;;5.23;1.30;;;;;;;5.12;80.73;98916.38;5014480;28;20833;-73
2023/12/22 09:29:06;;;;;;;6.33;2.70;;;;;;;5.16;79.56;98920.50;5013901;28;20210;-74
2023/12/22 09:31:33;;;;;;;9.60;2.20;;;;;;;5.18;80.05;98923.88;5008045;28;20229;-73
2023/12/22 09:33:59;;;;;;;10.57;2.30;;;;;;;5.20;79.69;98907.91;5009444;28;20237;-73
2023/12/22 09:36:26;;;;;;;8.73;1.73;;;;;;;5.27;79.26;98914.47;5010762;28;20213;-73
2023/12/22 09:38:52;;;;;;;10.07;1.83;;;;;;;5.27;80.19;98929.44;5009897;28;20208;-74
2023/12/22 09:41:19;;;;;;;7.80;1.50;;;;;;;5.32;79.79;98906.22;5015098;28;20266;-74
2023/12/22 09:43:50;;;;;;;12.03;2.57;;;;;;;5.34;79.50;98913.09;5016703;28;20199;-72
2023/12/22 09:46:19;;;;;;;12.27;2.00;;;;;;;5.36;79.63;98911.19;5013042;28;20228;-73
2023/12/22 09:48:46;;;;;;;7.60;1.70;;;;;;;5.39;79.55;98910.13;5012344;28;20608;-73
2023/12/22 09:51:15;;;;;;;10.90;1.67;;;;;;;5.33;79.09;98908.75;5013881;28;20737;-73
2023/12/22 09:53:42;;;;;;;7.53;1.57;;;;;;;5.28;79.67;98889.75;5014709;28;20752;-73
2023/12/22 09:56:09;;;;;;;9.50;1.60;;;;;;;5.25;79.29;98905.81;5014196;28;20292;-73
2023/12/22 09:58:37;;;;;;;7.20;1.63;;;;;;;5.26;79.91;98882.88;5016868;28;20290;-72
2023/12/22 10:01:05;;;;;;;3.67;1.40;;;;;;;5.23;79.38;98902.41;5008732;28;20247;-73
2023/12/22 10:03:35;;;;;;;8.33;1.90;;;;;;;5.23;80.10;98918.25;5015255;28;20213;-74
2023/12/22 10:06:02;;;;;;;4.03;1.00;;;;;;;5.23;80.94;98905.06;5016003;28;20220;-73
2023/12/22 10:08:29;;;;;;;7.10;1.50;;;;;;;5.19;81.20;98912.38;5014458;28;20218;-73
2023/12/22 10:10:57;;;;;;;4.70;1.07;;;;;;;5.20;81.94;98918.47;5014447;28;20226;-74
2023/12/22 10:13:23;;;;;;;8.73;1.67;;;;;;;5.19;82.57;98914.16;5016152;28;20234;-73
2023/12/22 10:15:50;;;;;;;7.93;1.80;;;;;;;5.19;83.09;98914.16;5018169;28;20216;-73
2023/12/22 10:18:17;;;;;;;6.53;1.27;;;;;;;5.20;84.60;98899.97;5017558;28;20215;-73
2023/12/22 10:20:46;;;;;;;10.60;2.60;;;;;;;5.20;84.87;98905.25;5017836;28;20227;-74
2023/12/22 10:23:13;;;;;;;11.37;3.00;;;;;;;5.19;85.38;98904.44;5010543;28;20199;-74
2023/12/22 10:25:41;;;;;;;9.60;2.30;;;;;;;5.20;85.60;98889.44;5012010;28;20203;-74
2023/12/22 10:28:11;;;;;;;9.60;2.10;;;;;;;5.24;86.96;98885.63;5008760;28;20683;-74
2023/12/22 10:30:38;;;;;;;8.00;2.20;;;;;;;5.25;87.59;98876.75;5016646;28;20226;-74
2023/12/22 10:33:05;;;;;;;12.07;3.03;;;;;;;5.26;88.23;98882.88;5012541;28;20223;-74
2023/12/22 10:35:32;;;;;;;6.93;2.13;;;;;;;5.26;88.28;98878.47;5015214;28;20230;-73
2023/12/22 10:38:00;;;;;;;11.53;2.10;;;;;;;5.24;88.89;98865.38;5016881;28;20242;-74
2023/12/22 10:40:26;;;;;;;8.80;1.50;;;;;;;5.23;88.79;98857.56;5015884;28;20246;-74
2023/12/22 10:42:53;;;;;;;8.13;2.00;;;;;;;5.24;89.10;98852.16;5011262;28;20199;-74
2023/12/22 10:45:20;;;;;;;14.53;1.83;;;;;;;5.27;89.26;98853.75;5015891;28;20209;-73
2023/12/22 10:47:50;;;;;;;7.20;1.93;;;;;;;5.25;89.75;98855.66;5017759;28;20210;-74
2023/12/22 10:50:19;;;;;;;10.93;2.50;;;;;;;5.27;89.48;98840.56;5010081;28;20233;-73
2023/12/22 10:52:50;;;;;;;6.93;1.50;;;;;;;5.31;89.27;98828.84;5016784;28;20231;-73
2023/12/22 10:55:18;;;;;;;14.80;2.57;;;;;;;5.30;88.96;98811.31;5012777;28;20199;-73
2023/12/22 10:57:47;;;;;;;9.63;2.07;;;;;;;5.32;89.03;98798.00;5016325;28;20214;-73
2023/12/22 11:00:16;;;;;;;9.50;2.03;;;;;;;5.32;89.31;98801.50;5008943;28;20249;-72
2023/12/22 11:02:44;;;;;;;6.87;3.03;;;;;;;5.35;88.44;98819.75;5001832;28;20724;-73
2023/12/22 11:05:12;;;;;;;10.17;1.93;;;;;;;5.35;88.95;98813.63;5017440;28;20261;-74
2023/12/22 11:07:39;;;;;;;7.53;1.53;;;;;;;5.40;88.72;98801.78;5013985;28;20210;-73
2023/12/22 11:10:07;;;;;;;10.57;1.40;;;;;;;5.45;88.76;98833.13;5013529;28;20236;-73
2023/12/22 11:12:36;;;;;;;9.37;1.93;;;;;;;5.51;88.45;98828.28;5016280;28;20635;-74
2023/12/22 11:15:06;;;;;;;10.73;1.93;;;;;;;5.53;88.82;98834.28;5017113;28;20682;-73
2023/12/22 11:17:33;;;;;;;9.53;2.07;;;;;;;5.59;87.95;98830.34;5017335;28;20268;-72
2023/12/22 11:20:00;;;;;;;11.17;2.27;;;;;;;5.64;87.47;98832.66;5012717;28;20824;-74
2023/12/22 11:22:27;;;;;;;9.03;2.40;;;;;;;5.65;87.28;98835.19;5028416;22;20240;-74
2023/12/22 11:24:56;;;;;;;11.50;1.83;;;;;;;5.69;86.99;98847.22;5013903;28;20206;-75
2023/12/22 11:27:26;;;;;;;10.47;2.30;;;;;;;5.71;86.77;98831.28;5007322;28;20207;-75
2023/12/22 11:29:55;;;;;;;7.63;2.40;;;;;;;5.72;86.64;98843.53;5008134;28;20667;-73
2023/12/22 11:32:22;;;;;;;7.90;1.67;;;;;;;5.74;86.28;98828.38;5006821;28;20235;-74
2023/12/22 11:34:49;;;;;;;8.87;1.70;;;;;;;5.78;86.19;98822.78;5007158;28;20206;-74
2023/12/22 11:37:17;;;;;;;8.63;2.30;;;;;;;5.84;85.37;98816.22;5008701;28;20231;-76